This is the latest recevied weather packets stored in our database for station/object DOUGLAS. If no packets are shown the sender has not sent any weather packets the latest 10 day(s).
| Time | Temp. | Humidity | Pressure | Rain* | Wind** | Luminosity | Snow |
|---|---|---|---|---|---|---|---|
| 1777504803 | 16.67° C | 64% | 0 hPa | - | - | - | - |
| 1777504203 | 15.56° C | 66% | 0 hPa | - | - | - | - |
| 1777503604 | 15.56° C | 67% | 0 hPa | - | - | - | - |
| 1777503003 | 15° C | 67% | 0 hPa | - | - | - | - |
| 1777502403 | 15.56° C | 69% | 0 hPa | - | - | - | - |
| 1777501803 | 15° C | 69% | 0 hPa | - | - | - | - |
| 1777501203 | 15.56° C | 66% | 0 hPa | - | - | - | - |
| 1777500603 | 16.11° C | 65% | 0 hPa | - | - | - | - |
| 1777500004 | 15.56° C | 65% | 0 hPa | - | - | - | - |
| 1777499403 | 16.11° C | 64% | 0 hPa | - | - | - | - |
| 1777498803 | 16.67° C | 62% | 0 hPa | - | - | - | - |
| 1777498204 | 15.56° C | 63% | 0 hPa | - | - | - | - |
| 1777497602 | 16.11° C | 65% | 0 hPa | - | - | - | - |
| 1777497003 | 18.33° C | 52% | 0 hPa | - | - | - | - |
| 1777496403 | 16.11° C | 60% | 0 hPa | - | - | - | - |
| 1777495803 | 16.11° C | 57% | 0 hPa | - | - | - | - |
| 1777495203 | 17.22° C | 53% | 0 hPa | - | - | - | - |
| 1777494603 | 15.56° C | 51% | 0 hPa | - | - | - | - |
| 1777494003 | 15° C | 53% | 0 hPa | - | - | - | - |
| 1777493402 | 15.56° C | 57% | 0 hPa | - | - | - | - |
| 1777492803 | 15° C | 57% | 0 hPa | - | - | - | - |
| 1777492208 | 15.56° C | 54% | 0 hPa | - | - | - | - |
| 1777491004 | 14.44° C | 64% | 0 hPa | - | - | - | - |
| 1777490403 | 13.89° C | 68% | 0 hPa | - | - | - | - |
| 1777489803 | 13.33° C | 67% | 0 hPa | - | - | - | - |
* Rain since midnight (hover to see other rain measurements)
** Current wind speed in m/s (hover to see current wind gust speed)